sensor_id;sensor_type;location;lat;lon;timestamp;pressure;altitude;pressure_sealevel;temperature;humidity
15558;BME280;7880;50.110;9.372;2023-01-15T00:02:47;8.38474063142785;;;8.5;100.0
15558;BME280;7880;50.110;9.372;2023-01-15T00:07:49;8.38474063142785;;;8.437;100.0
15558;BME280;7880;50.110;9.372;2023-01-15T00:12:52;8.425078069843584;;;8.5;100.0
15558;BME280;7880;50.110;9.372;2023-01-15T00:17:54;8.430120250955223;;;8.5;100.0
15558;BME280;7880;50.110;9.372;2023-01-15T00:22:58;8.425078069843584;;;8.5;100.0
15558;BME280;7880;50.110;9.372;2023-01-15T00:28:11;8.475499894056702;;;8.562;100.0
15558;BME280;7880;50.110;9.372;2023-01-15T00:33:08;8.460373343736865;;;8.562;100.0
15558;BME280;7880;50.110;9.372;2023-01-15T00:38:12;8.490626446995885;;;8.562;100.0
15558;BME280;7880;50.110;9.372;2023-01-15T00:43:16;8.475499894056702;;;8.562;100.0
15558;BME280;7880;50.110;9.372;2023-01-15T00:48:20;8.490626446995885;;;8.562;100.0
15558;BME280;7880;50.110;9.372;2023-01-15T00:53:25;8.510795188322664;;;8.625;100.0
15558;BME280;7880;50.110;9.372;2023-01-15T00:58:30;8.530963934306055;;;8.625;100.0
15558;BME280;7880;50.110;9.372;2023-01-15T01:03:33;8.500710817077197;;;8.562;100.0
15558;BME280;7880;50.110;9.372;2023-01-15T01:08:37;8.52592174737365;;;8.625;100.0
15558;BME280;7880;50.110;9.372;2023-01-15T01:13:42;8.561217062012293;;;8.625;100.0
15558;BME280;7880;50.110;9.372;2023-01-15T01:18:45;8.541048309043981;;;8.625;100.0
15558;BME280;7880;50.110;9.372;2023-01-15T01:23:51;8.541048309043981;;;8.562;100.0
15558;BME280;7880;50.110;9.372;2023-01-15T01:28:55;8.556174873333656;;;8.562;100.0
15558;BME280;7880;50.110;9.372;2023-01-15T01:33:58;8.586428009771044;;;8.625;100.0
15558;BME280;7880;50.110;9.372;2023-01-15T01:39:02;8.586428009771044;;;8.625;100.0
15558;BME280;7880;50.110;9.372;2023-01-15T01:44:05;8.556174873333656;;;8.625;100.0
15558;BME280;7880;50.110;9.372;2023-01-15T01:49:10;8.586428009771044;;;8.625;100.0
15558;BME280;7880;50.110;9.372;2023-01-15T01:54:17;8.571301440242678;;;8.625;100.0
15558;BME280;7880;50.110;9.372;2023-01-15T01:59:16;8.576343629794428;;;8.625;100.0
15558;BME280;7880;50.110;9.372;2023-01-15T02:04:26;8.586428009771044;;;8.625;100.0
15558;BME280;7880;50.110;9.372;2023-01-15T02:09:25;8.566259250981966;;;8.625;100.0
15558;BME280;7880;50.110;9.372;2023-01-15T02:14:35;8.571301440242678;;;8.625;100.0
15558;BME280;7880;50.110;9.372;2023-01-15T02:19:51;8.566259250981966;;;8.625;100.0
15558;BME280;7880;50.110;9.372;2023-01-15T02:24:47;8.576343629794428;;;8.625;100.0
15558;BME280;7880;50.110;9.372;2023-01-15T02:29:49;8.556174873333656;;;8.625;100.0
15558;BME280;7880;50.110;9.372;2023-01-15T02:34:51;8.541048309043981;;;8.625;100.0
15558;BME280;7880;50.110;9.372;2023-01-15T02:39:59;8.5360061215295;;;8.562;100.0
15558;BME280;7880;50.110;9.372;2023-01-15T02:44:57;8.52592174737365;;;8.562;100.0
15558;BME280;7880;50.110;9.372;2023-01-15T02:50:00;8.162885053089122;;;8.25;100.0
15558;BME280;7880;50.110;9.372;2023-01-15T02:55:07;7.996493739099241;;;8.062;100.0
15558;BME280;7880;50.110;9.372;2023-01-15T03:00:13;7.910777125280584;;;8.0;100.0
15558;BME280;7880;50.110;9.372;2023-01-15T03:05:17;7.134289279259974;;;7.25;100.0
15558;BME280;7880;50.110;9.372;2023-01-15T03:10:18;6.695627118647098;;;6.687;100.0
15558;BME280;7880;50.110;9.372;2023-01-15T03:16:35;6.388060710584978;;;6.437;100.0
15558;BME280;7880;50.110;9.372;2023-01-15T03:21:21;6.221672777296044;;;6.187;100.0
15558;BME280;7880;50.110;9.372;2023-01-15T03:26:21;6.0956215236859865;;;6.062;100.0
15558;BME280;7880;50.110;9.372;2023-01-15T03:31:25;6.085537431255216;;;6.062;100.0
15558;BME280;7880;50.110;9.372;2023-01-15T03:36:29;6.025032901117811;;;6.0;100.0
15558;BME280;7880;50.110;9.372;2023-01-15T03:41:48;5.8989819312701;;;5.875;100.0
15558;BME280;7880;50.110;9.372;2023-01-15T03:46:53;5.823351436672965;;;5.812;100.0
15558;BME280;7880;50.110;9.372;2023-01-15T03:51:48;5.803183315839851;;;5.75;100.0
15558;BME280;7880;50.110;9.372;2023-01-15T03:56:52;5.727552904188633;;;5.687;100.0
15558;BME280;7880;50.110;9.372;2023-01-15T04:01:56;5.596460345783271;;;5.625;100.0
15558;BME280;7880;50.110;9.372;2023-01-15T04:07:06;5.626712457183748;;;5.562;100.0
15558;BME280;7880;50.110;9.372;2023-01-15T04:12:05;5.304023809079081;;;5.375;100.0
15558;BME280;7880;50.110;9.372;2023-01-15T04:17:08;5.2233518333174285;;;5.25;100.0
15558;BME280;7880;50.110;9.372;2023-01-15T04:22:12;4.991420318023302;;;5.0;100.0
15558;BME280;7880;50.110;9.372;2023-01-15T04:27:31;4.865370839746902;;;4.875;100.0
15558;BME280;7880;50.110;9.372;2023-01-15T04:32:20;4.7040277729800435;;;4.687;100.0
15558;BME280;7880;50.110;9.372;2023-01-15T04:37:25;4.6031885075906755;;;4.625;100.0
15558;BME280;7880;50.110;9.372;2023-01-15T04:49:17;4.351090853434289;;;4.375;100.0
15558;BME280;7880;50.110;9.372;2023-01-15T04:54:22;4.421678123256425;;;4.375;100.0
15558;BME280;7880;50.110;9.372;2023-01-15T04:59:25;4.255293935630471;;;4.25;100.0
15558;BME280;7880;50.110;9.372;2023-01-15T05:04:27;4.209916484920541;;;4.187;100.0
15558;BME280;7880;50.110;9.372;2023-01-15T05:09:37;4.043532700673677;;;4.062;100.0
15558;BME280;7880;50.110;9.372;2023-01-15T05:14:35;4.1141197219491;;;4.062;100.0
15558;BME280;7880;50.110;9.372;2023-01-15T05:19:38;4.008239211427281;;;4.0;100.0
15558;BME280;7880;50.110;9.372;2023-01-15T05:24:47;3.8116043181158603;;;3.812;100.0
15558;BME280;7880;50.110;9.372;2023-01-15T05:29:47;3.7158079919929152;;;3.75;100.0
15558;BME280;7880;50.110;9.372;2023-01-15T05:34:58;3.483880479639629;;;3.5;100.0
15558;BME280;7880;50.110;9.372;2023-01-15T05:39:55;3.514131859369809;;;3.5;100.0
15558;BME280;7880;50.110;9.372;2023-01-15T05:44:59;3.4637128989736086;;;3.437;100.0
15558;BME280;7880;50.110;9.372;2023-01-15T05:50:44;3.458671004534699;;;3.437;100.0
15558;BME280;7880;50.110;9.372;2023-01-15T05:55:47;3.423377751611406;;;3.375;100.0
15558;BME280;7880;50.110;9.372;2023-01-15T06:00:49;3.393126403313363;;;3.375;100.0
15558;BME280;7880;50.110;9.372;2023-01-15T06:05:55;3.3023724212835077;;;3.25;100.0
15558;BME280;7880;50.110;9.372;2023-01-15T06:11:01;3.2721211148949805;;;3.25;100.0
15558;BME280;7880;50.110;9.372;2023-01-15T06:16:04;3.1611997477768456;;;3.187;100.0
15558;BME280;7880;50.110;9.372;2023-01-15T06:21:06;3.2721211148949805;;;3.25;100.0
15558;BME280;7880;50.110;9.372;2023-01-15T06:26:13;3.2620373484271115;;;3.187;100.0
15558;BME280;7880;50.110;9.372;2023-01-15T06:31:13;3.2217022941971662;;;3.187;100.0
15558;BME280;7880;50.110;9.372;2023-01-15T06:36:18;3.1864091370254757;;;3.187;100.0
15558;BME280;7880;50.110;9.372;2023-01-15T06:48:00;3.0754878787556663;;;3.062;100.0
15558;BME280;7880;50.110;9.372;2023-01-15T06:53:03;3.0099435650801754;;;3.0;100.0
15558;BME280;7880;50.110;9.372;2023-01-15T06:58:10;3.1107809911074584;;;3.062;100.0
15558;BME280;7880;50.110;9.372;2023-01-15T07:03:13;3.0754878787556663;;;3.125;100.0
15558;BME280;7880;50.110;9.372;2023-01-15T07:08:15;3.0906134965887757;;;3.062;100.0
15558;BME280;7880;50.110;9.372;2023-01-15T07:13:20;2.974650493473746;;;3.062;100.0
15558;BME280;7880;50.110;9.372;2023-01-15T07:18:32;3.0351529106730597;;;3.125;100.0
15558;BME280;7880;50.110;9.372;2023-01-15T07:23:28;3.1511159941146616;;;3.125;100.0
15558;BME280;7880;50.110;9.372;2023-01-15T07:28:30;3.0754878787556663;;;3.125;100.0
15558;BME280;7880;50.110;9.372;2023-01-15T07:33:32;2.934315571957268;;;3.0;100.0
15558;BME280;7880;50.110;9.372;2023-01-15T07:38:46;2.909106255468214;;;2.937;100.0
15558;BME280;7880;50.110;9.372;2023-01-15T07:50:38;2.9292737080773805;;;2.937;100.0
15558;BME280;7880;50.110;9.372;2023-01-15T07:55:41;2.914148118183948;;;2.937;100.0
15558;BME280;7880;50.110;9.372;2023-01-15T08:00:57;2.9191899811907205;;;2.937;100.0
15558;BME280;7880;50.110;9.372;2023-01-15T08:05:54;2.8486039255803917;;;2.937;100.0
15558;BME280;7880;50.110;9.372;2023-01-15T08:17:46;2.8536457848036663;;;2.875;100.0
15558;BME280;7880;50.110;9.372;2023-01-15T08:22:54;2.742724949121475;;;2.75;100.0
15558;BME280;7880;50.110;9.372;2023-01-15T08:28:00;2.8284364915976767;;;2.75;100.0
15558;BME280;7880;50.110;9.372;2023-01-15T08:32:59;2.7376830963010432;;;2.687;100.0
15558;BME280;7880;50.110;9.372;2023-01-15T08:38:04;2.6721390361199155;;;2.687;100.0
15558;BME280;7880;50.110;9.372;2023-01-15T08:43:08;2.5965113354905043;;;2.625;100.0
15558;BME280;7880;50.110;9.372;2023-01-15T08:48:09;2.788101637602085;;;2.75;100.0
15558;BME280;7880;50.110;9.372;2023-01-15T08:53:13;2.687264584103832;;;2.75;100.0
15558;BME280;7880;50.110;9.372;2023-01-15T08:58:17;2.7780179270135705;;;2.75;100.0
15558;BME280;7880;50.110;9.372;2023-01-15T09:03:21;2.722557539585978;;;2.812;100.0
15558;BME280;7880;50.110;9.372;2023-01-15T09:08:25;2.7628923633135853;;;2.812;100.0
15558;BME280;7880;50.110;9.372;2023-01-15T09:13:32;2.7376830963010432;;;2.812;100.0
15558;BME280;7880;50.110;9.372;2023-01-15T09:18:41;2.73264124377165;;;2.812;100.0
15558;BME280;7880;50.110;9.372;2023-01-15T09:23:37;2.742724949121475;;;2.812;100.0
15558;BME280;7880;50.110;9.372;2023-01-15T09:28:42;2.7729760721558705;;;2.875;100.0
15558;BME280;7880;50.110;9.372;2023-01-15T09:33:45;2.7981853493547533;;;2.875;100.0
15558;BME280;7880;50.110;9.372;2023-01-15T09:38:50;2.7931434933329;;;2.875;100.0
15558;BME280;7880;50.110;9.372;2023-01-15T09:43:59;2.783059782162309;;;2.875;100.0
15558;BME280;7880;50.110;9.372;2023-01-15T09:49:10;2.803227205667645;;;2.875;100.0
15558;BME280;7880;50.110;9.372;2023-01-15T09:54:13;2.7729760721558705;;;2.875;100.0
15558;BME280;7880;50.110;9.372;2023-01-15T09:59:18;2.8133109191665424;;;2.875;100.0
15558;BME280;7880;50.110;9.372;2023-01-15T10:04:16;2.9393574361281933;;;3.0;100.0
15558;BME280;7880;50.110;9.372;2023-01-15T10:09:16;3.0049016968347133;;;3.062;100.0
15558;BME280;7880;50.110;9.372;2023-01-15T10:14:39;2.974650493473746;;;3.062;100.0
15558;BME280;7880;50.110;9.372;2023-01-15T10:19:22;3.0099435650801754;;;3.125;100.0
15558;BME280;7880;50.110;9.372;2023-01-15T10:24:34;3.0099435650801754;;;3.125;100.0
15558;BME280;7880;50.110;9.372;2023-01-15T10:29:39;3.0452366509474813;;;3.125;100.0
15558;BME280;7880;50.110;9.372;2023-01-15T10:35:23;3.05027852152125;;;3.125;100.0
15558;BME280;7880;50.110;9.372;2023-01-15T10:40:23;3.4132939676812386;;;3.437;100.0
15558;BME280;7880;50.110;9.372;2023-01-15T10:45:14;3.1561578708002345;;;3.312;100.0
15558;BME280;7880;50.110;9.372;2023-01-15T10:50:17;3.2670792315155266;;;3.375;100.0
15558;BME280;7880;50.110;9.372;2023-01-15T10:55:25;3.3023724212835077;;;3.375;100.0
15558;BME280;7880;50.110;9.372;2023-01-15T11:00:25;3.31245619240799;;;3.437;100.0
15558;BME280;7880;50.110;9.372;2023-01-15T11:05:32;3.458671004534699;;;3.562;100.0
15558;BME280;7880;50.110;9.372;2023-01-15T11:10:34;4.517475223541259;;;4.312;100.0
15558;BME280;7880;50.110;9.372;2023-01-15T11:21:30;3.5393413504818456;;;3.625;100.0
15558;BME280;7880;50.110;9.372;2023-01-15T11:26:33;3.514131859369809;;;3.625;100.0
15558;BME280;7880;50.110;9.372;2023-01-15T11:31:39;3.5242156549415085;;;3.625;100.0
15558;BME280;7880;50.110;9.372;2023-01-15T11:37:03;3.529257553163916;;;3.625;100.0
15558;BME280;7880;50.110;9.372;2023-01-15T11:55:28;3.3981682939687743;;;3.5;100.0
15558;BME280;7880;50.110;9.372;2023-01-15T12:00:34;3.433461536705727;;;3.562;100.0
15558;BME280;7880;50.110;9.372;2023-01-15T12:05:45;3.5443832495773675;;;3.625;100.0
15558;BME280;7880;50.110;9.372;2023-01-15T12:11:08;3.4132939676812386;;;3.562;100.0
15558;BME280;7880;50.110;9.372;2023-01-15T12:16:00;3.433461536705727;;;3.562;100.0
15558;BME280;7880;50.110;9.372;2023-01-15T12:21:21;3.287246766779572;;;3.437;100.0
15558;BME280;7880;50.110;9.372;2023-01-15T12:26:12;3.251953583123395;;;3.375;100.0
15558;BME280;7880;50.110;9.372;2023-01-15T12:31:14;3.3023724212835077;;;3.375;100.0
15558;BME280;7880;50.110;9.372;2023-01-15T12:36:21;3.2922886513231786;;;3.375;100.0
15558;BME280;7880;50.110;9.372;2023-01-15T12:41:23;3.3275818512775004;;;3.437;100.0
15558;BME280;7880;50.110;9.372;2023-01-15T12:46:29;3.403210184915224;;;3.5;100.0
15558;BME280;7880;50.110;9.372;2023-01-15T12:51:46;3.408252076152712;;;3.5;100.0
15558;BME280;7880;50.110;9.372;2023-01-15T12:56:47;3.549425148963928;;;3.625;100.0
15558;BME280;7880;50.110;9.372;2023-01-15T13:01:47;3.5342994516773616;;;3.625;100.0
15558;BME280;7880;50.110;9.372;2023-01-15T13:06:52;3.529257553163916;;;3.625;100.0
15558;BME280;7880;50.110;9.372;2023-01-15T13:11:46;3.5342994516773616;;;3.625;100.0
15558;BME280;7880;50.110;9.372;2023-01-15T13:16:54;3.48892237553373;;;3.625;100.0
15558;BME280;7880;50.110;9.372;2023-01-15T13:21:58;3.514131859369809;;;3.625;100.0
15558;BME280;7880;50.110;9.372;2023-01-15T13:27:08;3.5191737570101393;;;3.625;100.0
15558;BME280;7880;50.110;9.372;2023-01-15T13:32:05;3.625053674686933;;;3.687;100.0
15558;BME280;7880;50.110;9.372;2023-01-15T13:37:16;3.6452212926058563;;;3.687;100.0
15558;BME280;7880;50.110;9.372;2023-01-15T13:42:45;3.7410175413126128;;;3.812;100.0
15558;BME280;7880;50.110;9.372;2023-01-15T13:47:28;3.5998441588366403;;;3.75;100.0
15558;BME280;7880;50.110;9.372;2023-01-15T13:52:35;3.7208499012747778;;;3.812;100.0
15558;BME280;7880;50.110;9.372;2023-01-15T13:57:42;3.7712690101005135;;;3.875;100.0
15558;BME280;7880;50.110;9.372;2023-01-15T14:02:50;3.6401793876895683;;;3.812;100.0
15558;BME280;7880;50.110;9.372;2023-01-15T14:07:42;3.7309337207116187;;;3.875;100.0
15558;BME280;7880;50.110;9.372;2023-01-15T14:12:55;3.8721073150634764;;;3.937;100.0
15558;BME280;7880;50.110;9.372;2023-01-15T14:18:01;3.655305103311548;;;3.75;100.0
15558;BME280;7880;50.110;9.372;2023-01-15T14:23:04;3.6754727282153907;;;3.75;100.0
15558;BME280;7880;50.110;9.372;2023-01-15T14:33:18;3.8468977279087992;;;3.937;100.0
15558;BME280;7880;50.110;9.372;2023-01-15T14:38:14;3.7561432743968908;;;3.875;100.0
15558;BME280;7880;50.110;9.372;2023-01-15T14:43:18;3.7863947484234814;;;3.937;100.0
15558;BME280;7880;50.110;9.372;2023-01-15T14:48:18;3.7561432743968908;;;3.875;100.0
15558;BME280;7880;50.110;9.372;2023-01-15T14:53:28;3.7914366617798807;;;3.875;100.0
15558;BME280;7880;50.110;9.372;2023-01-15T14:58:33;3.826730063423747;;;3.937;100.0
15558;BME280;7880;50.110;9.372;2023-01-15T15:03:35;3.8569815618975554;;;4.0;100.0
15558;BME280;7880;50.110;9.372;2023-01-15T15:08:34;3.8116043181158603;;;3.937;100.0
15558;BME280;7880;50.110;9.372;2023-01-15T15:13:46;3.826730063423747;;;3.937;100.0
15558;BME280;7880;50.110;9.372;2023-01-15T15:18:45;3.7914366617798807;;;3.937;100.0
15558;BME280;7880;50.110;9.372;2023-01-15T15:23:52;3.816646232927451;;;3.937;100.0
15558;BME280;7880;50.110;9.372;2023-01-15T15:28:55;3.826730063423747;;;3.937;100.0
15558;BME280;7880;50.110;9.372;2023-01-15T15:33:58;3.836813895084197;;;3.937;100.0
15558;BME280;7880;50.110;9.372;2023-01-15T15:39:14;3.851939644757658;;;3.937;100.0
15558;BME280;7880;50.110;9.372;2023-01-15T15:51:00;3.7813528353581205;;;3.937;100.0
15558;BME280;7880;50.110;9.372;2023-01-15T15:56:05;3.902358829253353;;;4.0;100.0
15558;BME280;7880;50.110;9.372;2023-01-15T16:06:26;3.806562403595308;;;4.0;100.0
15558;BME280;7880;50.110;9.372;2023-01-15T16:11:31;3.826730063423747;;;3.937;100.0
15558;BME280;7880;50.110;9.372;2023-01-15T16:16:32;3.776310922583798;;;3.937;100.0
15558;BME280;7880;50.110;9.372;2023-01-15T16:21:35;3.816646232927451;;;3.937;100.0
15558;BME280;7880;50.110;9.372;2023-01-15T16:26:53;3.7561432743968908;;;3.875;100.0
15558;BME280;7880;50.110;9.372;2023-01-15T16:31:51;3.8468977279087992;;;3.937;100.0
15558;BME280;7880;50.110;9.372;2023-01-15T16:36:56;3.7914366617798807;;;3.937;100.0
15558;BME280;7880;50.110;9.372;2023-01-15T16:42:01;3.806562403595308;;;3.937;100.0
15558;BME280;7880;50.110;9.372;2023-01-15T16:47:04;3.7511013630777597;;;3.875;100.0
15558;BME280;7880;50.110;9.372;2023-01-15T16:52:35;3.746059452049667;;;3.875;100.0
15558;BME280;7880;50.110;9.372;2023-01-15T16:57:26;3.6956403577758463;;;3.812;100.0
15558;BME280;7880;50.110;9.372;2023-01-15T17:02:20;3.700682265893556;;;3.812;100.0
15558;BME280;7880;50.110;9.372;2023-01-15T17:07:31;3.6754727282153907;;;3.812;100.0
15558;BME280;7880;50.110;9.372;2023-01-15T17:12:37;3.6200117709347976;;;3.75;100.0
15558;BME280;7880;50.110;9.372;2023-01-15T17:17:36;3.6300955787301064;;;3.75;100.0
15558;BME280;7880;50.110;9.372;2023-01-15T17:22:41;3.6200117709347976;;;3.75;100.0
15558;BME280;7880;50.110;9.372;2023-01-15T17:27:49;3.665388915181393;;;3.75;100.0
15558;BME280;7880;50.110;9.372;2023-01-15T17:32:51;3.5342994516773616;;;3.687;100.0
15558;BME280;7880;50.110;9.372;2023-01-15T17:37:55;3.5847184528189246;;;3.687;100.0
15558;BME280;7880;50.110;9.372;2023-01-15T17:42:58;3.5040480649622623;;;3.625;100.0
15558;BME280;7880;50.110;9.372;2023-01-15T17:48:04;3.5342994516773616;;;3.625;100.0
15558;BME280;7880;50.110;9.372;2023-01-15T17:53:05;3.549425148963928;;;3.562;100.0
15558;BME280;7880;50.110;9.372;2023-01-15T18:05:37;3.458671004534699;;;3.562;100.0
15558;BME280;7880;50.110;9.372;2023-01-15T18:10:18;3.428419644013047;;;3.5;100.0
15558;BME280;7880;50.110;9.372;2023-01-15T18:15:52;3.4132939676812386;;;3.5;100.0
15558;BME280;7880;50.110;9.372;2023-01-15T18:20:33;3.473796688724542;;;3.5;100.0
15558;BME280;7880;50.110;9.372;2023-01-15T18:25:36;3.362875065492699;;;3.5;100.0
15558;BME280;7880;50.110;9.372;2023-01-15T18:30:40;3.332623738149414;;;3.5;100.0
15558;BME280;7880;50.110;9.372;2023-01-15T18:35:43;3.5393413504818456;;;3.562;100.0
15558;BME280;7880;50.110;9.372;2023-01-15T18:40:49;3.448587216529995;;;3.5;100.0
15558;BME280;7880;50.110;9.372;2023-01-15T18:46:58;3.4132939676812386;;;3.5;100.0
15558;BME280;7880;50.110;9.372;2023-01-15T18:51:40;3.48892237553373;;;3.562;100.0
15558;BME280;7880;50.110;9.372;2023-01-15T18:56:47;3.493964271718869;;;3.625;100.0
15558;BME280;7880;50.110;9.372;2023-01-15T19:01:47;3.453629110386828;;;3.562;100.0
15558;BME280;7880;50.110;9.372;2023-01-15T19:06:51;3.473796688724542;;;3.562;100.0
15558;BME280;7880;50.110;9.372;2023-01-15T19:11:56;3.5040480649622623;;;3.625;100.0
15558;BME280;7880;50.110;9.372;2023-01-15T19:23:54;3.48892237553373;;;3.562;100.0
15558;BME280;7880;50.110;9.372;2023-01-15T19:28:55;3.4637128989736086;;;3.625;100.0
15558;BME280;7880;50.110;9.372;2023-01-15T19:34:04;3.493964271718869;;;3.625;100.0
15558;BME280;7880;50.110;9.372;2023-01-15T19:39:03;3.448587216529995;;;3.562;100.0
15558;BME280;7880;50.110;9.372;2023-01-15T19:50:57;3.5242156549415085;;;3.625;100.0
15558;BME280;7880;50.110;9.372;2023-01-15T19:56:02;3.5746346502623054;;;3.687;100.0
15558;BME280;7880;50.110;9.372;2023-01-15T20:01:29;3.554467048641527;;;3.687;100.0
15558;BME280;7880;50.110;9.372;2023-01-15T20:06:12;3.5191737570101393;;;3.687;100.0
15558;BME280;7880;50.110;9.372;2023-01-15T20:11:14;3.5948022565396966;;;3.75;100.0
15558;BME280;7880;50.110;9.372;2023-01-15T20:16:20;3.6099279643036426;;;3.75;100.0
15558;BME280;7880;50.110;9.372;2023-01-15T20:21:28;3.5342994516773616;;;3.687;100.0
15558;BME280;7880;50.110;9.372;2023-01-15T20:26:35;3.5897603545337917;;;3.687;100.0
15558;BME280;7880;50.110;9.372;2023-01-15T20:31:33;3.665388915181393;;;3.75;100.0
15558;BME280;7880;50.110;9.372;2023-01-15T20:36:36;3.5998441588366403;;;3.75;100.0
15558;BME280;7880;50.110;9.372;2023-01-15T20:49:36;3.614969867473701;;;3.75;100.0
15558;BME280;7880;50.110;9.372;2023-01-15T20:54:18;3.6905984499491753;;;3.812;100.0
15558;BME280;7880;50.110;9.372;2023-01-15T20:59:22;3.6603470091009513;;;3.812;100.0
15558;BME280;7880;50.110;9.372;2023-01-15T21:04:27;3.650263197813183;;;3.812;100.0
15558;BME280;7880;50.110;9.372;2023-01-15T21:09:29;3.6452212926058563;;;3.812;100.0
15558;BME280;7880;50.110;9.372;2023-01-15T21:14:33;3.6956403577758463;;;3.812;100.0
15558;BME280;7880;50.110;9.372;2023-01-15T21:19:37;3.665388915181393;;;3.812;100.0
15558;BME280;7880;50.110;9.372;2023-01-15T21:24:41;3.6603470091009513;;;3.812;100.0
15558;BME280;7880;50.110;9.372;2023-01-15T21:29:46;3.625053674686933;;;3.812;100.0
15558;BME280;7880;50.110;9.372;2023-01-15T21:34:50;3.6300955787301064;;;3.75;100.0
15558;BME280;7880;50.110;9.372;2023-01-15T21:39:53;3.635137483064318;;;3.812;100.0
15558;BME280;7880;50.110;9.372;2023-01-15T21:45:05;3.650263197813183;;;3.75;100.0
15558;BME280;7880;50.110;9.372;2023-01-15T21:50:48;3.635137483064318;;;3.75;100.0
15558;BME280;7880;50.110;9.372;2023-01-15T21:55:47;3.6048860614246223;;;3.75;100.0
15558;BME280;7880;50.110;9.372;2023-01-15T22:00:50;3.6300955787301064;;;3.75;100.0
15558;BME280;7880;50.110;9.372;2023-01-15T22:05:53;3.6099279643036426;;;3.75;100.0
15558;BME280;7880;50.110;9.372;2023-01-15T22:11:01;3.650263197813183;;;3.812;100.0
15558;BME280;7880;50.110;9.372;2023-01-15T22:16:04;3.625053674686933;;;3.75;100.0
15558;BME280;7880;50.110;9.372;2023-01-15T22:21:09;3.700682265893556;;;3.812;100.0
15558;BME280;7880;50.110;9.372;2023-01-15T22:26:15;3.6805146351689473;;;3.812;100.0
15558;BME280;7880;50.110;9.372;2023-01-15T22:31:17;3.614969867473701;;;3.75;100.0
15558;BME280;7880;50.110;9.372;2023-01-15T22:36:19;3.685556542413542;;;3.812;100.0
15558;BME280;7880;50.110;9.372;2023-01-15T22:42:23;3.705724174302304;;;3.875;100.0
15558;BME280;7880;50.110;9.372;2023-01-15T22:47:11;3.705724174302304;;;3.875;100.0
15558;BME280;7880;50.110;9.372;2023-01-15T22:52:15;3.746059452049667;;;3.875;100.0
15558;BME280;7880;50.110;9.372;2023-01-15T22:57:20;3.685556542413542;;;3.812;100.0
15558;BME280;7880;50.110;9.372;2023-01-15T23:02:53;3.625053674686933;;;3.75;100.0
15558;BME280;7880;50.110;9.372;2023-01-15T23:07:35;3.665388915181393;;;3.812;100.0
15558;BME280;7880;50.110;9.372;2023-01-15T23:12:39;3.6401793876895683;;;3.812;100.0
15558;BME280;7880;50.110;9.372;2023-01-15T23:17:43;3.635137483064318;;;3.75;100.0
15558;BME280;7880;50.110;9.372;2023-01-15T23:22:46;3.6200117709347976;;;3.75;100.0
15558;BME280;7880;50.110;9.372;2023-01-15T23:27:49;3.625053674686933;;;3.812;100.0
15558;BME280;7880;50.110;9.372;2023-01-15T23:32:56;3.650263197813183;;;3.75;100.0
15558;BME280;7880;50.110;9.372;2023-01-15T23:37:57;3.56455084886984;;;3.687;100.0
15558;BME280;7880;50.110;9.372;2023-01-15T23:49:54;3.453629110386828;;;3.562;100.0
15558;BME280;7880;50.110;9.372;2023-01-15T23:54:56;3.5242156549415085;;;3.625;100.0
